createdAt,value
2023-03-21T00:00:45.180Z,15.24
2023-03-21T00:03:12.224Z,15.18
2023-03-21T00:05:43.266Z,15.06
2023-03-21T00:08:10.183Z,14.96
2023-03-21T00:10:43.579Z,14.87
2023-03-21T00:13:14.104Z,14.84
2023-03-21T00:16:05.274Z,14.78
2023-03-21T00:18:41.930Z,14.81
2023-03-21T00:24:00.875Z,14.69
2023-03-21T00:26:28.041Z,14.70
2023-03-21T00:28:54.805Z,14.71
2023-03-21T00:31:21.781Z,14.66
2023-03-21T00:33:50.456Z,14.55
2023-03-21T00:36:18.245Z,14.51
2023-03-21T00:38:45.132Z,14.49
2023-03-21T00:41:25.892Z,14.50
2023-03-21T00:44:03.406Z,14.43
2023-03-21T00:46:43.656Z,14.36
2023-03-21T00:49:12.446Z,14.31
2023-03-21T00:51:40.996Z,14.30
2023-03-21T00:54:07.918Z,14.36
2023-03-21T00:56:34.761Z,14.31
2023-03-21T00:59:01.584Z,14.36
2023-03-21T01:01:32.047Z,14.35
2023-03-21T01:04:07.683Z,14.41
2023-03-21T01:06:41.727Z,14.37
2023-03-21T01:09:13.802Z,14.35
2023-03-21T01:11:40.953Z,14.43
2023-03-21T01:14:21.326Z,14.23
2023-03-21T01:16:49.099Z,14.19
2023-03-21T01:19:25.376Z,14.18
2023-03-21T01:21:57.193Z,14.13
2023-03-21T01:24:24.729Z,14.14
2023-03-21T01:26:51.536Z,14.20
2023-03-21T01:29:18.419Z,14.23
2023-03-21T01:31:45.571Z,14.27
2023-03-21T01:34:12.529Z,14.30
2023-03-21T01:36:39.864Z,14.28
2023-03-21T01:39:11.498Z,14.21
2023-03-21T01:41:43.358Z,14.23
2023-03-21T01:44:19.324Z,14.25
2023-03-21T01:49:47.908Z,14.26
2023-03-21T01:52:46.731Z,14.30
2023-03-21T01:55:18.646Z,14.28
2023-03-21T01:58:05.852Z,14.35
2023-03-21T02:00:57.068Z,14.20
2023-03-21T02:03:50.944Z,14.13
2023-03-21T02:06:52.091Z,14.07
2023-03-21T02:09:42.333Z,14.05
2023-03-21T02:12:16.398Z,14.00
2023-03-21T02:14:48.011Z,13.96
2023-03-21T02:17:36.860Z,14.02
2023-03-21T02:20:22.230Z,13.96
2023-03-21T02:23:10.708Z,14.01
2023-03-21T02:25:50.043Z,14.03
2023-03-21T02:28:35.914Z,14.05
2023-03-21T02:31:12.109Z,13.95
2023-03-21T02:33:42.444Z,13.98
2023-03-21T02:36:36.764Z,13.97
2023-03-21T02:39:24.629Z,13.94
2023-03-21T02:42:02.053Z,13.94
2023-03-21T02:44:42.109Z,13.89
2023-03-21T02:47:24.028Z,13.91
2023-03-21T02:50:11.673Z,13.77
2023-03-21T02:52:41.530Z,13.60
2023-03-21T02:55:16.122Z,13.42
2023-03-21T02:57:52.810Z,13.34
2023-03-21T03:00:24.518Z,13.30
2023-03-21T03:03:02.617Z,13.28
2023-03-21T03:05:41.314Z,13.29
2023-03-21T03:08:37.642Z,13.27
2023-03-21T03:11:23.638Z,13.20
2023-03-21T03:14:38.428Z,13.21
2023-03-21T03:17:23.266Z,13.02
2023-03-21T03:20:15.679Z,13.03
2023-03-21T03:22:50.117Z,13.06
2023-03-21T03:25:39.486Z,13.13
2023-03-21T03:28:09.726Z,13.18
2023-03-21T03:30:45.051Z,13.21
2023-03-21T03:33:24.590Z,13.21
2023-03-21T03:36:04.619Z,13.20
2023-03-21T03:38:33.898Z,13.18
2023-03-21T03:41:28.167Z,13.16
2023-03-21T03:44:01.819Z,13.18
2023-03-21T03:46:38.575Z,13.16
2023-03-21T03:49:10.871Z,13.18
2023-03-21T03:51:54.675Z,12.91
2023-03-21T03:54:38.385Z,12.90
2023-03-21T03:57:08.429Z,12.82
2023-03-21T03:59:40.836Z,12.81
2023-03-21T04:02:32.279Z,12.66
2023-03-21T04:05:01.956Z,12.45
2023-03-21T04:07:29.133Z,12.44
2023-03-21T04:09:59.839Z,12.21
2023-03-21T04:12:27.429Z,11.93
2023-03-21T04:15:16.649Z,11.87
2023-03-21T04:17:48.352Z,11.90
2023-03-21T04:20:26.454Z,12.00
2023-03-21T04:23:01.978Z,12.11
2023-03-21T04:25:33.769Z,12.16
2023-03-21T04:28:03.127Z,12.32
2023-03-21T04:31:02.443Z,12.21
2023-03-21T04:33:41.274Z,12.31
2023-03-21T04:36:09.514Z,12.39
2023-03-21T04:38:37.379Z,12.26
2023-03-21T04:41:04.869Z,12.17
2023-03-21T04:43:32.141Z,12.12
2023-03-21T04:45:59.085Z,12.00
2023-03-21T04:48:26.255Z,12.10
2023-03-21T04:50:53.165Z,12.10
2023-03-21T04:53:20.289Z,12.12
2023-03-21T04:55:47.748Z,12.16
2023-03-21T04:58:15.476Z,12.12
2023-03-21T05:00:45.156Z,12.20
2023-03-21T05:03:19.774Z,12.27
2023-03-21T05:05:48.803Z,12.29
2023-03-21T05:08:16.022Z,12.33
2023-03-21T05:10:43.691Z,12.26
2023-03-21T05:13:11.086Z,12.29
2023-03-21T05:15:38.345Z,12.41
2023-03-21T05:18:10.382Z,12.44
2023-03-21T05:20:42.860Z,12.47
2023-03-21T05:23:11.769Z,12.57
2023-03-21T05:25:39.834Z,12.53
2023-03-21T05:28:18.290Z,12.44
2023-03-21T05:30:46.643Z,12.43
2023-03-21T05:33:13.831Z,12.48
2023-03-21T05:35:41.020Z,12.44
2023-03-21T05:38:10.188Z,12.46
2023-03-21T05:40:49.315Z,12.43
2023-03-21T05:43:17.531Z,12.29
2023-03-21T05:45:45.148Z,12.33
2023-03-21T05:48:12.158Z,12.26
2023-03-21T05:50:56.598Z,12.31
2023-03-21T05:53:23.900Z,12.39
2023-03-21T05:55:50.703Z,12.40
2023-03-21T05:58:36.401Z,12.51
2023-03-21T06:01:03.467Z,12.59
2023-03-21T06:03:34.195Z,12.63
2023-03-21T06:06:05.246Z,12.70
2023-03-21T06:08:40.013Z,12.65
2023-03-21T06:11:16.825Z,12.70
2023-03-21T06:13:43.796Z,12.70
2023-03-21T06:16:10.711Z,12.76
2023-03-21T06:18:38.288Z,12.82
2023-03-21T06:21:31.395Z,12.92
2023-03-21T06:23:58.214Z,12.93
2023-03-21T06:26:25.391Z,13.01
2023-03-21T06:28:54.484Z,13.06
2023-03-21T06:31:25.269Z,13.15
2023-03-21T06:33:55.174Z,13.16
2023-03-21T06:36:22.108Z,13.19
2023-03-21T06:38:49.369Z,13.18
2023-03-21T06:41:17.092Z,13.14
2023-03-21T06:43:52.056Z,13.27
2023-03-21T06:46:19.525Z,13.37
2023-03-21T06:48:46.931Z,13.44
2023-03-21T06:51:15.446Z,13.55
2023-03-21T06:53:54.399Z,13.67
2023-03-21T06:56:29.401Z,13.77
2023-03-21T06:58:56.662Z,13.77
2023-03-21T07:01:43.792Z,13.96
2023-03-21T07:04:11.090Z,14.16
2023-03-21T07:06:38.773Z,14.23
2023-03-21T07:09:06.549Z,14.35
2023-03-21T07:11:36.219Z,14.45
2023-03-21T07:14:04.395Z,14.59
2023-03-21T07:16:31.363Z,14.72
2023-03-21T07:18:58.192Z,14.81
2023-03-21T07:21:25.123Z,14.93
2023-03-21T07:23:53.548Z,15.08
2023-03-21T07:26:20.786Z,15.20
2023-03-21T07:28:47.698Z,15.27
2023-03-21T07:31:16.543Z,15.37
2023-03-21T07:33:43.530Z,15.38
2023-03-21T07:36:13.277Z,15.44
2023-03-21T07:38:41.249Z,15.48
2023-03-21T07:41:08.588Z,15.55
2023-03-21T07:43:37.175Z,15.48
2023-03-21T07:46:09.748Z,15.54
2023-03-21T07:48:37.315Z,15.56
2023-03-21T07:51:06.465Z,15.66
2023-03-21T07:53:35.297Z,15.57
2023-03-21T07:56:02.132Z,15.63
2023-03-21T07:58:28.879Z,15.68
2023-03-21T08:00:56.665Z,15.82
2023-03-21T08:03:24.206Z,15.77
2023-03-21T08:05:51.197Z,15.79
2023-03-21T08:08:18.169Z,15.74
2023-03-21T08:10:45.253Z,15.90
2023-03-21T08:13:12.821Z,15.90
2023-03-21T08:15:42.174Z,15.90
2023-03-21T08:18:10.056Z,15.92
2023-03-21T08:20:37.067Z,16.05
2023-03-21T08:23:04.323Z,16.02
2023-03-21T08:25:31.516Z,16.06
2023-03-21T08:27:58.333Z,16.12
2023-03-21T08:30:28.219Z,16.02
2023-03-21T08:33:01.959Z,16.10
2023-03-21T08:35:29.799Z,16.02
2023-03-21T08:37:56.843Z,16.09
2023-03-21T08:40:23.602Z,16.23
2023-03-21T08:42:50.382Z,16.47
2023-03-21T08:45:18.362Z,16.44
2023-03-21T08:47:45.824Z,16.50
2023-03-21T08:50:16.059Z,16.56
2023-03-21T08:52:43.367Z,16.65
2023-03-21T08:55:11.398Z,16.68
2023-03-21T08:57:38.267Z,16.78
2023-03-21T09:00:14.906Z,17.03
2023-03-21T09:02:42.736Z,17.17
2023-03-21T09:05:12.061Z,17.03
2023-03-21T09:07:41.019Z,16.87
2023-03-21T09:10:26.954Z,16.87
2023-03-21T09:12:55.536Z,16.71
2023-03-21T09:15:25.033Z,17.04
2023-03-21T09:17:57.134Z,17.24
2023-03-21T09:20:31.203Z,17.43
2023-03-21T09:22:59.229Z,17.55
2023-03-21T09:25:29.534Z,17.70
2023-03-21T09:27:56.572Z,17.82
2023-03-21T09:30:26.248Z,17.94
2023-03-21T09:32:56.898Z,17.96
2023-03-21T09:35:24.913Z,18.02
2023-03-21T09:37:51.907Z,18.16
2023-03-21T09:40:29.193Z,18.35
2023-03-21T09:42:59.731Z,18.46
2023-03-21T09:45:49.396Z,18.55
2023-03-21T09:48:31.788Z,18.68
2023-03-21T09:50:58.609Z,18.75
2023-03-21T09:53:35.518Z,18.64
2023-03-21T09:56:02.984Z,18.63
2023-03-21T09:58:36.701Z,18.67
2023-03-21T10:01:11.232Z,18.69
2023-03-21T10:03:38.269Z,18.56
2023-03-21T10:06:13.196Z,18.62
2023-03-21T10:08:43.091Z,18.73
2023-03-21T10:11:25.590Z,18.80
2023-03-21T10:13:59.569Z,18.85
2023-03-21T10:16:41.023Z,18.98
2023-03-21T10:19:12.990Z,19.02
2023-03-21T10:21:59.746Z,19.08
2023-03-21T10:24:29.258Z,19.15
2023-03-21T10:26:59.906Z,18.87
2023-03-21T10:29:32.112Z,19.10
2023-03-21T10:32:00.669Z,18.94
2023-03-21T10:34:36.914Z,19.13
2023-03-21T10:37:05.535Z,19.03
2023-03-21T10:39:44.066Z,18.84
2023-03-21T10:42:24.022Z,18.97
2023-03-21T10:44:54.186Z,19.09
2023-03-21T10:47:24.821Z,18.88
2023-03-21T10:50:09.322Z,18.98
2023-03-21T10:52:42.047Z,19.22
2023-03-21T10:55:24.545Z,19.17
2023-03-21T10:58:08.771Z,19.16
2023-03-21T11:00:41.404Z,19.14
2023-03-21T11:03:24.589Z,19.13
2023-03-21T11:05:58.564Z,19.16
2023-03-21T11:08:27.385Z,19.26
2023-03-21T11:10:54.110Z,19.23
2023-03-21T11:13:27.123Z,19.32
2023-03-21T11:16:03.947Z,19.33
2023-03-21T11:18:33.383Z,19.28
2023-03-21T11:21:06.139Z,19.34
2023-03-21T11:23:35.875Z,19.40
2023-03-21T11:26:09.114Z,19.40
2023-03-21T11:28:39.677Z,19.38
2023-03-21T11:31:09.344Z,19.30
2023-03-21T11:33:40.603Z,19.31
2023-03-21T11:36:24.560Z,19.04
2023-03-21T11:38:56.679Z,19.07
2023-03-21T11:41:28.974Z,19.04
2023-03-21T11:43:58.230Z,19.05
2023-03-21T11:46:27.735Z,19.16
2023-03-21T11:48:56.324Z,19.00
2023-03-21T11:51:42.591Z,19.07
2023-03-21T11:54:28.298Z,19.10
2023-03-21T11:57:22.744Z,19.09
2023-03-21T12:00:01.898Z,19.03
2023-03-21T12:03:07.685Z,19.07
2023-03-21T12:05:39.516Z,19.11
2023-03-21T12:08:12.940Z,18.99
2023-03-21T12:10:46.013Z,18.82
2023-03-21T12:13:27.340Z,18.94
2023-03-21T12:16:31.711Z,19.09
2023-03-21T12:19:11.984Z,18.92
2023-03-21T12:21:57.206Z,18.83
2023-03-21T12:24:31.392Z,18.77
2023-03-21T12:27:10.561Z,18.82
2023-03-21T12:29:59.035Z,18.63
2023-03-21T12:33:02.756Z,18.70
2023-03-21T12:35:55.050Z,18.84
2023-03-21T12:38:21.999Z,18.69
2023-03-21T12:41:06.713Z,18.67
2023-03-21T12:43:45.649Z,18.60
2023-03-21T12:46:34.243Z,18.49
2023-03-21T12:49:16.772Z,18.67
2023-03-21T12:52:01.865Z,18.94
2023-03-21T12:54:40.398Z,18.81
2023-03-21T12:57:33.638Z,18.71
2023-03-21T13:00:27.430Z,18.57
2023-03-21T13:03:08.856Z,18.50
2023-03-21T13:05:41.988Z,18.44
2023-03-21T13:08:49.334Z,18.67
2023-03-21T13:11:21.903Z,18.49
2023-03-21T13:14:04.659Z,18.64
2023-03-21T13:16:38.058Z,18.53
2023-03-21T13:19:27.198Z,18.36
2023-03-21T13:22:00.611Z,18.61
2023-03-21T13:24:52.803Z,18.72
2023-03-21T13:27:31.766Z,18.84
2023-03-21T13:30:18.515Z,18.92
2023-03-21T13:32:48.933Z,19.02
2023-03-21T13:35:16.418Z,19.05
2023-03-21T13:37:59.429Z,19.09
2023-03-21T13:40:42.482Z,19.34
2023-03-21T13:43:34.240Z,19.47
2023-03-21T13:46:27.377Z,19.62
2023-03-21T13:49:01.374Z,19.53
2023-03-21T13:51:28.176Z,19.66
2023-03-21T13:54:26.152Z,19.80
2023-03-21T13:56:56.820Z,19.70
2023-03-21T13:59:44.686Z,19.76
2023-03-21T14:02:33.396Z,19.64
2023-03-21T14:05:07.332Z,19.27
2023-03-21T14:07:47.471Z,19.14
2023-03-21T14:10:37.413Z,18.88
2023-03-21T14:13:16.303Z,18.88
2023-03-21T14:15:56.475Z,18.99
2023-03-21T14:18:35.396Z,19.12
2023-03-21T14:21:29.520Z,19.32
2023-03-21T14:24:01.859Z,19.33
2023-03-21T14:26:37.994Z,19.35
2023-03-21T14:29:09.657Z,19.37
2023-03-21T14:31:45.663Z,19.43
2023-03-21T14:34:15.419Z,19.34
2023-03-21T14:36:51.646Z,19.36
2023-03-21T14:39:26.193Z,19.25
2023-03-21T14:41:56.078Z,19.23
2023-03-21T14:44:52.807Z,19.17
2023-03-21T14:47:28.105Z,18.88
2023-03-21T14:49:57.113Z,19.15
2023-03-21T14:52:27.674Z,19.21
2023-03-21T14:55:04.067Z,19.12
2023-03-21T14:57:33.282Z,19.09
2023-03-21T15:00:07.784Z,19.08
2023-03-21T15:02:40.153Z,19.12
2023-03-21T15:05:14.602Z,19.08
2023-03-21T15:07:41.631Z,18.99
2023-03-21T15:10:17.366Z,19.19
2023-03-21T15:12:51.432Z,19.08
2023-03-21T15:15:18.927Z,19.20
2023-03-21T15:17:46.524Z,19.20
2023-03-21T15:20:17.074Z,19.18
2023-03-21T15:22:54.342Z,19.21
2023-03-21T15:25:28.228Z,19.14
2023-03-21T15:27:56.146Z,18.95
2023-03-21T15:30:29.245Z,19.12
2023-03-21T15:32:57.568Z,19.04
2023-03-21T15:35:33.721Z,19.21
2023-03-21T15:38:00.576Z,19.28
2023-03-21T15:40:32.425Z,19.40
2023-03-21T15:43:25.673Z,19.47
2023-03-21T15:46:07.192Z,19.51
2023-03-21T15:48:34.872Z,19.48
2023-03-21T15:51:07.483Z,19.40
2023-03-21T15:53:36.613Z,19.37
2023-03-21T15:56:06.573Z,19.36
2023-03-21T15:58:38.788Z,19.34
2023-03-21T16:01:10.831Z,19.40
2023-03-21T16:03:42.054Z,19.30
2023-03-21T16:06:20.774Z,19.32
2023-03-21T16:08:50.197Z,19.29
2023-03-21T16:11:23.158Z,19.34
2023-03-21T16:13:51.700Z,19.37
2023-03-21T16:16:26.051Z,19.29
2023-03-21T16:18:54.764Z,19.14
2023-03-21T16:21:24.313Z,19.11
2023-03-21T16:23:51.191Z,18.97
2023-03-21T16:26:23.842Z,18.94
2023-03-21T16:28:51.242Z,18.77
2023-03-21T16:31:25.406Z,18.91
2023-03-21T16:33:52.422Z,18.71
2023-03-21T16:36:23.046Z,18.80
2023-03-21T16:38:52.710Z,18.75
2023-03-21T16:41:20.501Z,18.62
2023-03-21T16:43:47.668Z,18.59
2023-03-21T16:46:23.700Z,18.55
2023-03-21T16:48:52.992Z,18.54
2023-03-21T16:53:49.579Z,18.57
2023-03-21T16:56:27.816Z,18.61
2023-03-21T16:58:56.068Z,18.75
2023-03-21T17:01:30.103Z,18.91
2023-03-21T17:04:00.458Z,19.09
2023-03-21T17:06:30.047Z,19.26
2023-03-21T17:08:58.572Z,19.39
2023-03-21T17:11:27.331Z,19.44
2023-03-21T17:13:55.244Z,19.44
2023-03-21T17:16:26.701Z,19.45
2023-03-21T17:18:53.871Z,19.41
2023-03-21T17:21:26.660Z,19.33
2023-03-21T17:23:53.935Z,19.27
2023-03-21T17:26:24.559Z,19.25
2023-03-21T17:28:53.648Z,19.20
2023-03-21T17:31:23.785Z,19.22
2023-03-21T17:33:51.002Z,19.17
2023-03-21T17:36:19.033Z,19.07
2023-03-21T17:38:46.193Z,18.96
2023-03-21T17:41:14.766Z,18.81
2023-03-21T17:43:41.596Z,18.69
2023-03-21T17:46:16.392Z,18.60
2023-03-21T17:48:44.634Z,18.45
2023-03-21T17:51:14.814Z,18.35
2023-03-21T17:53:42.940Z,18.29
2023-03-21T17:56:14.783Z,18.19
2023-03-21T17:58:41.667Z,18.17
2023-03-21T18:01:08.521Z,18.08
2023-03-21T18:03:35.389Z,18.02
2023-03-21T18:06:02.240Z,17.92
2023-03-21T18:08:29.680Z,17.88
2023-03-21T18:10:56.613Z,17.83
2023-03-21T18:13:23.849Z,17.67
2023-03-21T18:15:50.867Z,17.72
2023-03-21T18:18:17.922Z,17.65
2023-03-21T18:20:52.257Z,17.61
2023-03-21T18:23:20.971Z,17.53
2023-03-21T18:25:48.602Z,17.51
2023-03-21T18:28:19.400Z,17.46
2023-03-21T18:33:37.742Z,17.39
2023-03-21T18:36:07.490Z,17.41
2023-03-21T18:38:35.888Z,17.35
2023-03-21T18:41:03.366Z,17.36
2023-03-21T18:46:17.650Z,17.33
2023-03-21T18:48:44.627Z,17.32
2023-03-21T18:51:11.575Z,17.30
2023-03-21T18:53:38.735Z,17.29
2023-03-21T18:56:09.931Z,17.26
2023-03-21T18:58:37.349Z,17.24
2023-03-21T19:01:05.128Z,17.19
2023-03-21T19:03:36.919Z,17.20
2023-03-21T19:06:05.450Z,17.13
2023-03-21T19:08:34.881Z,17.04
2023-03-21T19:11:05.948Z,17.06
2023-03-21T19:13:34.199Z,17.04
2023-03-21T19:16:02.590Z,17.02
2023-03-21T19:21:19.921Z,16.99
2023-03-21T19:26:33.830Z,16.96
2023-03-21T19:29:01.265Z,16.94
2023-03-21T19:31:28.254Z,16.93
2023-03-21T19:33:55.741Z,16.91
2023-03-21T19:36:23.544Z,16.93
2023-03-21T19:38:51.328Z,16.94
2023-03-21T19:41:25.478Z,16.90
2023-03-21T19:43:55.027Z,16.91
2023-03-21T19:46:25.472Z,16.91
2023-03-21T19:48:56.966Z,16.89
2023-03-21T19:51:29.731Z,16.90
2023-03-21T19:54:03.306Z,16.87
2023-03-21T19:56:31.544Z,16.86
2023-03-21T19:58:59.769Z,16.84
2023-03-21T20:01:27.681Z,16.84
2023-03-21T20:03:54.881Z,16.84
2023-03-21T20:06:25.340Z,16.83
2023-03-21T20:11:40.416Z,16.79
2023-03-21T20:14:07.373Z,16.80
2023-03-21T20:16:36.451Z,16.77
2023-03-21T20:19:06.031Z,16.75
2023-03-21T20:21:42.277Z,16.75
2023-03-21T20:24:14.724Z,16.73
2023-03-21T20:26:41.643Z,16.69
2023-03-21T20:29:56.345Z,16.71
2023-03-21T20:31:55.684Z,16.69
2023-03-21T20:34:22.997Z,16.66
2023-03-21T20:36:50.426Z,16.67
2023-03-21T20:39:17.855Z,16.64
2023-03-21T20:41:44.607Z,16.55
2023-03-21T20:44:42.100Z,16.55
2023-03-21T20:47:00.128Z,16.53
2023-03-21T20:49:28.199Z,16.49
2023-03-21T20:54:42.319Z,16.54
2023-03-21T20:57:09.320Z,16.48
2023-03-21T20:59:36.231Z,16.48
2023-03-21T21:02:03.786Z,16.49
2023-03-21T21:04:55.738Z,16.47
2023-03-21T21:07:21.083Z,16.42
2023-03-21T21:09:48.710Z,16.46
2023-03-21T21:12:19.536Z,16.48
2023-03-21T21:14:47.913Z,16.50
2023-03-21T21:17:31.200Z,16.52
2023-03-21T21:20:17.390Z,16.49
2023-03-21T21:22:58.446Z,16.52
2023-03-21T21:25:26.179Z,16.53
2023-03-21T21:27:53.879Z,16.52
2023-03-21T21:30:26.215Z,16.50
2023-03-21T21:32:54.051Z,16.49
2023-03-21T21:35:22.408Z,16.52
2023-03-21T21:37:51.089Z,16.52
2023-03-21T21:40:20.622Z,16.51
2023-03-21T21:42:47.542Z,16.52
2023-03-21T21:45:16.843Z,16.51
2023-03-21T21:47:44.844Z,16.50
2023-03-21T21:50:12.625Z,16.46
2023-03-21T21:52:39.460Z,16.47
2023-03-21T21:55:06.740Z,16.41
2023-03-21T21:57:34.709Z,16.39
2023-03-21T22:00:06.273Z,16.34
2023-03-21T22:02:39.112Z,16.24
2023-03-21T22:05:07.907Z,16.08
2023-03-21T22:07:35.084Z,15.93
2023-03-21T22:10:01.993Z,15.91
2023-03-21T22:12:29.251Z,15.91
2023-03-21T22:14:56.323Z,15.75
2023-03-21T22:17:23.252Z,15.82
2023-03-21T22:20:04.719Z,15.79
2023-03-21T22:22:36.719Z,15.69
2023-03-21T22:25:09.136Z,15.60
2023-03-21T22:27:36.819Z,15.32
2023-03-21T22:30:07.529Z,15.39
2023-03-21T22:32:36.133Z,15.39
2023-03-21T22:35:03.326Z,15.37
2023-03-21T22:37:34.812Z,15.24
2023-03-21T22:40:02.479Z,15.18
2023-03-21T22:42:29.315Z,15.11
2023-03-21T22:44:56.262Z,15.07
2023-03-21T22:47:23.200Z,15.18
2023-03-21T22:49:50.508Z,15.27
2023-03-21T22:52:17.536Z,15.31
2023-03-21T22:54:46.021Z,15.40
2023-03-21T22:57:13.793Z,15.43
2023-03-21T22:59:40.812Z,15.46
2023-03-21T23:02:09.647Z,15.45
2023-03-21T23:04:37.217Z,15.46
2023-03-21T23:07:04.296Z,15.49
2023-03-21T23:09:31.381Z,15.47
2023-03-21T23:11:58.385Z,15.48
2023-03-21T23:14:25.729Z,15.52
2023-03-21T23:17:00.307Z,15.37
2023-03-21T23:19:28.995Z,15.31
2023-03-21T23:21:56.856Z,15.31
2023-03-21T23:24:24.808Z,15.33
2023-03-21T23:26:51.757Z,15.33
2023-03-21T23:29:18.657Z,15.37
2023-03-21T23:31:45.877Z,15.35
2023-03-21T23:34:13.945Z,15.37
2023-03-21T23:36:40.964Z,15.34
2023-03-21T23:39:08.863Z,15.30
2023-03-21T23:41:35.899Z,15.32
2023-03-21T23:44:03.143Z,15.30
2023-03-21T23:46:30.964Z,15.29
2023-03-21T23:48:57.976Z,15.30
2023-03-21T23:51:24.838Z,15.28
2023-03-21T23:53:53.540Z,15.28
2023-03-21T23:56:23.214Z,15.27
2023-03-21T23:58:50.238Z,15.29
